Time;durP1;ratioP1;P1;durP2;ratioP2;P2;SDS_P1;SDS_P2;PMS_P1;PMS_P2;Temp;Humidity;BMP_temperature;BMP_pressure;BME280_temperature;BME280_humidity;BME280_pressure;Samples;Min_cycle;Max_cycle;Signal;HPM_P1;HPM_P2
2021/09/08 03:46:08;;;;;;;21.38;10.68;;;;;;;;;;5690015;23;20046;-83
2021/09/08 03:48:34;;;;;;;22.07;10.30;;;;;;;;;;4961912;28;20046;-82
2021/09/08 03:50:59;;;;;;;19.03;9.90;;;;;;;;;;4974591;28;20479;-82
2021/09/08 03:53:24;;;;;;;21.10;10.40;;;;;;;;;;4958503;28;20167;-81
2021/09/08 03:55:50;;;;;;;22.13;10.60;;;;;;;;;;4955629;28;20042;-82
2021/09/08 03:58:15;;;;;;;22.00;10.40;;;;;;;;;;4939863;29;20027;-82
2021/09/08 04:00:41;;;;;;;18.93;9.93;;;;;;;;;;4944079;28;20117;-81
2021/09/08 04:03:06;;;;;;;23.93;10.97;;;;;;;;;;4959261;28;20105;-81
2021/09/08 04:05:31;;;;;;;20.53;10.37;;;;;;;;;;4975469;28;20053;-80
2021/09/08 04:07:57;;;;;;;25.60;10.83;;;;;;;;;;4959729;28;20172;-81
2021/09/08 04:10:23;;;;;;;19.67;10.13;;;;;;;;;;4975363;28;20114;-80
2021/09/08 04:12:49;;;;;;;21.98;10.30;;;;;;;;;;4975952;28;20031;-80
2021/09/08 04:15:14;;;;;;;23.50;10.60;;;;;;;;;;4975187;28;20471;-86
2021/09/08 04:17:40;;;;;;;25.52;11.52;;;;;;;;;;4958780;28;20027;-80
2021/09/08 04:20:06;;;;;;;24.73;10.87;;;;;;;;;;4958815;28;20019;-80
2021/09/08 04:22:31;;;;;;;21.00;10.77;;;;;;;;;;4958343;28;20068;-81
2021/09/08 04:24:56;;;;;;;24.57;10.73;;;;;;;;;;4959151;28;20030;-80
2021/09/08 04:27:22;;;;;;;18.80;9.85;;;;;;;;;;4974861;28;20574;-82
2021/09/08 04:29:47;;;;;;;21.45;9.85;;;;;;;;;;4958841;28;20027;-83
2021/09/08 04:32:12;;;;;;;24.07;10.93;;;;;;;;;;4959653;28;20125;-83
2021/09/08 04:34:38;;;;;;;23.47;10.77;;;;;;;;;;4942135;28;20038;-83
2021/09/08 04:37:09;;;;;;;21.27;10.30;;;;;;;;;;4958726;28;20097;-86
2021/09/08 04:39:34;;;;;;;20.73;10.00;;;;;;;;;;4973005;28;20059;-83
2021/09/08 04:41:59;;;;;;;23.57;10.23;;;;;;;;;;4958049;28;20037;-85
2021/09/08 04:44:25;;;;;;;19.67;9.60;;;;;;;;;;4973647;28;20102;-85
2021/09/08 04:46:51;;;;;;;19.90;9.82;;;;;;;;;;4957853;28;20030;-85
2021/09/08 04:49:16;;;;;;;21.15;10.95;;;;;;;;;;4941466;28;20089;-84
2021/09/08 04:51:42;;;;;;;21.37;10.47;;;;;;;;;;4957744;28;20783;-85
2021/09/08 04:54:07;;;;;;;20.20;9.60;;;;;;;;;;4957509;28;20090;-86
2021/09/08 04:56:32;;;;;;;18.40;9.73;;;;;;;;;;4957677;28;20023;-85
2021/09/08 04:58:58;;;;;;;24.40;9.90;;;;;;;;;;4973755;28;20101;-85
2021/09/08 05:01:23;;;;;;;21.23;10.20;;;;;;;;;;4957487;28;20037;-86
2021/09/08 05:03:49;;;;;;;17.80;9.27;;;;;;;;;;4958039;28;20034;-84
2021/09/08 05:06:14;;;;;;;18.90;9.50;;;;;;;;;;4957504;28;20033;-83
2021/09/08 05:08:45;;;;;;;17.50;9.00;;;;;;;;;;4957497;28;20025;-83
2021/09/08 05:11:11;;;;;;;19.05;9.05;;;;;;;;;;4973768;28;20081;-83
2021/09/08 05:13:36;;;;;;;22.90;10.43;;;;;;;;;;4957271;28;20488;-85
2021/09/08 05:16:02;;;;;;;18.17;9.80;;;;;;;;;;4957093;28;20108;-85
2021/09/08 05:18:27;;;;;;;20.90;10.10;;;;;;;;;;4973273;28;20025;-85
2021/09/08 05:20:56;;;;;;;20.57;9.60;;;;;;;;;;4953750;29;20439;-83
2021/09/08 05:23:22;;;;;;;20.35;9.77;;;;;;;;;;4937811;29;20130;-83
2021/09/08 05:25:47;;;;;;;18.90;8.50;;;;;;;;;;4937483;29;20031;-85
2021/09/08 05:28:12;;;;;;;16.77;8.50;;;;;;;;;;4945142;28;20392;-83
2021/09/08 05:30:38;;;;;;;14.53;8.13;;;;;;;;;;4953679;28;20020;-82
2021/09/08 05:33:03;;;;;;;14.10;7.00;;;;;;;;;;4961705;28;20547;-85
2021/09/08 05:35:34;;;;;;;12.77;6.93;;;;;;;;;;4953703;28;20121;-83
2021/09/08 05:38:00;;;;;;;14.18;7.18;;;;;;;;;;4937124;29;20042;-83
2021/09/08 05:40:28;;;;;;;15.63;6.77;;;;;;;;;;4937358;29;20027;-83
2021/09/08 05:42:54;;;;;;;14.70;6.80;;;;;;;;;;4936665;28;20059;-83
2021/09/08 05:45:19;;;;;;;12.37;7.03;;;;;;;;;;4944494;28;20027;-83
2021/09/08 05:47:44;;;;;;;13.43;7.13;;;;;;;;;;4953420;28;20028;-84
2021/09/08 05:50:10;;;;;;;12.53;7.03;;;;;;;;;;4937156;28;20039;-86
2021/09/08 05:52:35;;;;;;;13.63;7.57;;;;;;;;;;4952638;29;20059;-83
2021/09/08 05:55:06;;;;;;;14.67;6.97;;;;;;;;;;4940342;28;20109;-85
2021/09/08 05:57:32;;;;;;;14.43;7.15;;;;;;;;;;4972179;28;20027;-83
2021/09/08 05:59:57;;;;;;;14.27;6.67;;;;;;;;;;4956533;28;20070;-83
2021/09/08 06:02:23;;;;;;;13.90;7.03;;;;;;;;;;4972360;28;20168;-84
2021/09/08 06:04:48;;;;;;;13.50;6.13;;;;;;;;;;4956039;28;20035;-83
2021/09/08 06:07:18;;;;;;;11.53;6.37;;;;;;;;;;4956306;28;20133;-83
2021/09/08 06:09:43;;;;;;;14.05;6.80;;;;;;;;;;4972706;28;20130;-84
2021/09/08 06:12:08;;;;;;;14.43;7.00;;;;;;;;;;4940255;28;20459;-83
2021/09/08 06:14:34;;;;;;;15.80;8.33;;;;;;;;;;4940240;28;20023;-83
2021/09/08 06:16:59;;;;;;;12.97;7.70;;;;;;;;;;4940458;28;20403;-84
2021/09/08 06:19:24;;;;;;;15.23;7.00;;;;;;;;;;4938661;28;20069;-84
2021/09/08 06:21:50;;;;;;;13.30;7.73;;;;;;;;;;4956217;28;20019;-84
2021/09/08 06:24:15;;;;;;;13.97;7.43;;;;;;;;;;4956184;28;20035;-83
2021/09/08 06:26:44;;;;;;;16.33;7.93;;;;;;;;;;4952760;28;20952;-83
2021/09/08 06:29:09;;;;;;;13.60;7.57;;;;;;;;;;4953742;29;20023;-84
2021/09/08 06:31:38;;;;;;;16.25;7.15;;;;;;;;;;4936984;29;20057;-84
2021/09/08 06:34:05;;;;;;;12.77;7.25;;;;;;;;;;4930391;28;20038;-84
2021/09/08 06:36:34;;;;;;;11.23;6.57;;;;;;;;;;4952552;28;20058;-85
2021/09/08 06:38:59;;;;;;;12.57;7.38;;;;;;;;;;4937598;28;20038;-85
2021/09/08 06:41:27;;;;;;;11.93;6.33;;;;;;;;;;4955815;28;20023;-85
2021/09/08 06:44:29;;;;;;;14.23;7.00;;;;;;;;;;4952670;28;20043;-86
2021/09/08 06:46:56;;;;;;;12.07;6.90;;;;;;;;;;4952430;28;20035;-86
2021/09/08 06:49:22;;;;;;;11.68;6.80;;;;;;;;;;4936535;29;20051;-84
2021/09/08 06:51:47;;;;;;;10.03;6.17;;;;;;;;;;4936441;29;20119;-84
2021/09/08 06:54:13;;;;;;;11.87;6.37;;;;;;;;;;4936745;29;20059;-84
2021/09/08 06:56:57;;;;;;;10.15;5.90;;;;;;;;;;4936759;29;20279;-84
2021/09/08 06:59:22;;;;;;;9.82;6.07;;;;;;;;;;4937472;29;20031;-84
2021/09/08 07:01:48;;;;;;;;;;;;;;;;;;4939966;28;20076;-84
2021/09/08 07:04:14;;;;;;;9.85;5.70;;;;;;;;;;4991386;28;19910;-84
2021/09/08 07:06:39;;;;;;;10.63;5.82;;;;;;;;;;4971988;28;20038;-84
2021/09/08 07:09:09;;;;;;;9.88;5.38;;;;;;;;;;4972134;28;20019;-84
2021/09/08 07:11:34;;;;;;;10.65;5.25;;;;;;;;;;4972524;28;20034;-84
2021/09/08 07:14:04;;;;;;;8.52;5.40;;;;;;;;;;4972124;28;20031;-85
2021/09/08 07:16:29;;;;;;;9.30;5.43;;;;;;;;;;4987559;28;20031;-86
2021/09/08 07:18:54;;;;;;;8.40;5.05;;;;;;;;;;4955516;29;20019;-85
2021/09/08 07:21:20;;;;;;;11.40;6.22;;;;;;;;;;4974646;28;20547;-86
2021/09/08 07:23:45;;;;;;;7.68;4.70;;;;;;;;;;4955454;29;20031;-85
2021/09/08 07:26:10;;;;;;;9.30;5.53;;;;;;;;;;4923207;29;20029;-85
2021/09/08 07:28:42;;;;;;;8.80;5.50;;;;;;;;;;4923504;29;20125;-86
2021/09/08 07:31:09;;;;;;;10.98;5.15;;;;;;;;;;4955127;29;20042;-85
2021/09/08 07:33:34;;;;;;;8.05;4.97;;;;;;;;;;4953937;28;20023;-86
2021/09/08 07:36:06;;;;;;;8.75;5.13;;;;;;;;;;4923399;29;20633;-84
2021/09/08 07:38:32;;;;;;;8.02;5.25;;;;;;;;;;4958524;28;20061;-85
2021/09/08 07:40:57;;;;;;;7.70;5.07;;;;;;;;;;4971200;28;20019;-86
2021/09/08 07:43:28;;;;;;;7.30;5.00;;;;;;;;;;4971196;28;20475;-85
2021/09/08 07:45:54;;;;;;;8.55;5.13;;;;;;;;;;4970687;28;20046;-85
2021/09/08 07:48:20;;;;;;;7.50;5.07;;;;;;;;;;4971173;28;20027;-85
2021/09/08 07:50:46;;;;;;;9.93;5.35;;;;;;;;;;4970814;28;20019;-85
2021/09/08 07:53:11;;;;;;;7.57;4.82;;;;;;;;;;4957623;28;20541;-85
2021/09/08 07:55:37;;;;;;;9.00;5.30;;;;;;;;;;4974048;28;20064;-85
2021/09/08 07:58:03;;;;;;;8.25;4.85;;;;;;;;;;4957833;28;20463;-86
2021/09/08 08:00:28;;;;;;;6.72;4.82;;;;;;;;;;4990171;28;20065;-86
2021/09/08 08:02:54;;;;;;;8.48;4.95;;;;;;;;;;4973884;28;20109;-86
2021/09/08 08:05:19;;;;;;;7.43;5.15;;;;;;;;;;4957664;28;20121;-87
2021/09/08 08:07:45;;;;;;;7.50;4.85;;;;;;;;;;4954615;29;20031;-87
2021/09/08 08:10:11;;;;;;;7.70;4.80;;;;;;;;;;4941874;28;20023;-87
2021/09/08 08:12:36;;;;;;;6.88;4.45;;;;;;;;;;4958530;28;20553;-87
2021/09/08 08:15:02;;;;;;;8.93;4.65;;;;;;;;;;4957163;28;20027;-87
2021/09/08 08:17:27;;;;;;;6.93;4.72;;;;;;;;;;4958035;28;20030;-88
2021/09/08 08:19:53;;;;;;;8.13;5.05;;;;;;;;;;4973549;28;20098;-87
2021/09/08 08:22:18;;;;;;;9.68;4.68;;;;;;;;;;4973571;28;20031;-88
2021/09/08 08:24:44;;;;;;;8.05;5.03;;;;;;;;;;4973387;28;20031;-87
2021/09/08 08:27:09;;;;;;;8.02;4.97;;;;;;;;;;4957380;28;20455;-87
2021/09/08 08:29:34;;;;;;;8.95;4.70;;;;;;;;;;4989687;28;20045;-88
2021/09/08 08:32:00;;;;;;;8.10;4.88;;;;;;;;;;4957438;28;20738;-87
2021/09/08 08:34:25;;;;;;;7.22;5.03;;;;;;;;;;4955496;28;20041;-87
2021/09/08 08:36:51;;;;;;;8.02;4.78;;;;;;;;;;4957049;28;20502;-88
2021/09/08 08:39:16;;;;;;;7.50;4.60;;;;;;;;;;4973462;28;20084;-88
2021/09/08 08:41:41;;;;;;;10.05;4.93;;;;;;;;;;4957247;28;20038;-85
2021/09/08 08:44:07;;;;;;;10.20;4.75;;;;;;;;;;4973321;28;20038;-85
2021/09/08 08:46:32;;;;;;;7.80;4.85;;;;;;;;;;4973289;28;20034;-89
2021/09/08 08:48:58;;;;;;;8.38;4.70;;;;;;;;;;4973260;28;20027;-85
2021/09/08 08:51:23;;;;;;;8.32;5.10;;;;;;;;;;4973134;28;20029;-85
2021/09/08 08:53:49;;;;;;;8.93;5.40;;;;;;;;;;4973271;28;20109;-86
2021/09/08 08:56:15;;;;;;;8.02;5.30;;;;;;;;;;4956696;28;20033;-86
2021/09/08 08:58:41;;;;;;;9.68;5.28;;;;;;;;;;4988885;28;20476;-85
2021/09/08 09:01:13;;;;;;;7.55;4.75;;;;;;;;;;4972829;28;20046;-85
2021/09/08 09:03:39;;;;;;;8.27;4.90;;;;;;;;;;4972962;28;20037;-86
2021/09/08 09:06:04;;;;;;;8.63;4.78;;;;;;;;;;4972619;28;20031;-85
2021/09/08 09:08:33;;;;;;;8.57;4.90;;;;;;;;;;4956904;28;20492;-85
2021/09/08 09:10:59;;;;;;;7.70;5.05;;;;;;;;;;4972822;28;20118;-85
2021/09/08 09:13:34;;;;;;;6.55;4.80;;;;;;;;;;4956620;28;20121;-86
2021/09/08 09:16:09;;;;;;;7.13;4.80;;;;;;;;;;4972303;28;20035;-84
2021/09/08 09:18:49;;;;;;;8.93;4.55;;;;;;;;;;4972989;28;20553;-85
2021/09/08 09:21:15;;;;;;;7.97;4.75;;;;;;;;;;4973106;28;20023;-85
2021/09/08 09:24:02;;;;;;;7.20;4.90;;;;;;;;;;4940550;28;20030;-85
2021/09/08 09:26:37;;;;;;;10.57;5.00;;;;;;;;;;4972173;28;20030;-86
2021/09/08 09:29:13;;;;;;;9.13;4.80;;;;;;;;;;4972594;28;20058;-86
2021/09/08 09:31:57;;;;;;;9.20;4.65;;;;;;;;;;4937312;29;20031;-85
2021/09/08 09:34:23;;;;;;;6.70;4.97;;;;;;;;;;4937074;29;20041;-85
2021/09/08 09:36:56;;;;;;;7.13;4.70;;;;;;;;;;4950020;28;20765;-85
2021/09/08 09:39:21;;;;;;;8.32;5.15;;;;;;;;;;4972437;28;20023;-84
2021/09/08 09:41:47;;;;;;;8.02;5.35;;;;;;;;;;4970582;28;20089;-84
2021/09/08 09:44:16;;;;;;;6.63;4.70;;;;;;;;;;4956254;28;20042;-83
2021/09/08 09:46:43;;;;;;;7.78;5.15;;;;;;;;;;4941010;28;20050;-84
2021/09/08 09:49:08;;;;;;;8.57;4.80;;;;;;;;;;4956515;28;20518;-84
2021/09/08 09:51:34;;;;;;;9.00;4.97;;;;;;;;;;4953214;28;20059;-85
2021/09/08 09:54:00;;;;;;;7.88;4.80;;;;;;;;;;4968751;28;20031;-85
2021/09/08 09:56:25;;;;;;;8.43;4.88;;;;;;;;;;4968671;28;20034;-85
2021/09/08 09:58:52;;;;;;;7.93;4.82;;;;;;;;;;4952813;29;20114;-85
2021/09/08 10:01:19;;;;;;;6.85;4.60;;;;;;;;;;4953022;29;20023;-84
2021/09/08 10:03:44;;;;;;;7.90;4.45;;;;;;;;;;4951567;29;20059;-84
2021/09/08 10:06:10;;;;;;;7.10;4.80;;;;;;;;;;4958962;28;20122;-84
2021/09/08 10:08:39;;;;;;;9.38;5.03;;;;;;;;;;4955556;28;20037;-84
2021/09/08 10:11:05;;;;;;;9.23;4.88;;;;;;;;;;4955878;28;20122;-84
2021/09/08 10:13:42;;;;;;;10.00;4.80;;;;;;;;;;4955659;28;20070;-84
2021/09/08 10:16:08;;;;;;;11.35;5.10;;;;;;;;;;4955849;28;20080;-84
2021/09/08 10:18:34;;;;;;;7.60;4.72;;;;;;;;;;4972092;28;20027;-85
2021/09/08 10:21:15;;;;;;;8.05;5.00;;;;;;;;;;4972917;28;20026;-85
2021/09/08 10:23:45;;;;;;;8.15;4.75;;;;;;;;;;4972792;28;20031;-86
2021/09/08 10:26:12;;;;;;;9.75;5.18;;;;;;;;;;4956684;28;20400;-85
2021/09/08 10:28:39;;;;;;;8.13;4.90;;;;;;;;;;4957258;28;20591;-85
2021/09/08 10:31:04;;;;;;;8.68;5.00;;;;;;;;;;4973010;28;20027;-85
2021/09/08 10:33:30;;;;;;;9.23;4.73;;;;;;;;;;4956708;28;20027;-85
2021/09/08 10:35:55;;;;;;;8.93;5.37;;;;;;;;;;4956617;28;20046;-85
2021/09/08 10:38:23;;;;;;;7.87;4.87;;;;;;;;;;4956103;28;20377;-85
2021/09/08 10:40:49;;;;;;;7.50;4.90;;;;;;;;;;4973469;28;20023;-84
2021/09/08 10:43:15;;;;;;;8.55;4.80;;;;;;;;;;4955650;28;20118;-85
2021/09/08 10:45:51;;;;;;;7.83;4.73;;;;;;;;;;4956326;28;20457;-84
2021/09/08 10:48:46;;;;;;;8.25;4.53;;;;;;;;;;4956833;28;20290;-85
2021/09/08 10:51:20;;;;;;;9.10;4.60;;;;;;;;;;4969909;28;20447;-84
2021/09/08 10:54:02;;;;;;;8.68;4.78;;;;;;;;;;4972979;28;20081;-85
2021/09/08 10:56:45;;;;;;;8.15;4.78;;;;;;;;;;4972929;28;20022;-84
2021/09/08 10:59:11;;;;;;;8.32;5.13;;;;;;;;;;4956784;28;20049;-84
2021/09/08 11:01:36;;;;;;;8.57;4.70;;;;;;;;;;4956737;28;20496;-85
2021/09/08 11:04:01;;;;;;;10.10;4.90;;;;;;;;;;4956852;28;20035;-84
2021/09/08 11:06:38;;;;;;;9.50;5.20;;;;;;;;;;4956700;28;20026;-84
2021/09/08 11:09:05;;;;;;;12.88;4.70;;;;;;;;;;4956063;28;20084;-84
2021/09/08 11:11:31;;;;;;;10.88;5.38;;;;;;;;;;4955662;28;20480;-84
2021/09/08 11:13:56;;;;;;;9.97;5.10;;;;;;;;;;4955245;28;20130;-83
2021/09/08 11:16:26;;;;;;;8.67;5.13;;;;;;;;;;4956251;28;20384;-84
2021/09/08 11:18:56;;;;;;;9.48;4.80;;;;;;;;;;4972840;28;20035;-84
2021/09/08 11:21:26;;;;;;;7.85;4.82;;;;;;;;;;4972214;28;20085;-82
2021/09/08 11:24:03;;;;;;;7.80;4.68;;;;;;;;;;4955657;28;20030;-84
2021/09/08 11:26:29;;;;;;;;;;;;;;;;;;4956334;28;20039;-83
2021/09/08 11:29:07;;;;;;;10.25;4.55;;;;;;;;;;4988284;28;19917;-83
2021/09/08 11:31:35;;;;;;;9.35;4.70;;;;;;;;;;4988042;28;20031;-84
2021/09/08 11:34:23;;;;;;;12.50;4.72;;;;;;;;;;4955537;28;20023;-85
2021/09/08 11:36:53;;;;;;;9.77;5.03;;;;;;;;;;4973188;28;20034;-85
2021/09/08 11:39:19;;;;;;;7.68;4.57;;;;;;;;;;4955742;28;20023;-85
2021/09/08 11:42:04;;;;;;;11.32;5.05;;;;;;;;;;4971797;28;20499;-85
2021/09/08 11:44:29;;;;;;;9.25;4.45;;;;;;;;;;4972325;28;20501;-84
2021/09/08 11:46:55;;;;;;;7.38;4.25;;;;;;;;;;4955349;28;20129;-84
2021/09/08 11:49:21;;;;;;;8.32;4.43;;;;;;;;;;4972586;28;20058;-84
2021/09/08 11:51:46;;;;;;;7.37;4.50;;;;;;;;;;4959100;28;20494;-85
2021/09/08 11:54:16;;;;;;;8.43;4.70;;;;;;;;;;4958977;28;20031;-84
2021/09/08 11:56:41;;;;;;;9.75;4.55;;;;;;;;;;4975042;28;20635;-85
2021/09/08 11:59:07;;;;;;;8.65;4.70;;;;;;;;;;4959179;28;20058;-85
2021/09/08 12:01:39;;;;;;;10.13;4.82;;;;;;;;;;4958947;28;20034;-85
2021/09/08 12:04:05;;;;;;;8.40;4.72;;;;;;;;;;4958610;28;20472;-84
2021/09/08 12:06:32;;;;;;;8.65;4.45;;;;;;;;;;4975176;28;20109;-83
2021/09/08 12:09:01;;;;;;;7.70;4.43;;;;;;;;;;4955542;29;20488;-83
2021/09/08 12:11:33;;;;;;;8.20;4.82;;;;;;;;;;4955556;29;20507;-84
2021/09/08 12:14:21;;;;;;;7.88;4.63;;;;;;;;;;4955537;29;20034;-83
2021/09/08 12:16:48;;;;;;;8.38;4.50;;;;;;;;;;4955452;28;20039;-83
2021/09/08 12:19:50;;;;;;;8.00;4.38;;;;;;;;;;4939590;29;20051;-84
2021/09/08 12:22:26;;;;;;;9.30;4.57;;;;;;;;;;4903403;29;20397;-83
2021/09/08 12:24:52;;;;;;;9.32;4.15;;;;;;;;;;4939589;29;20019;-83
2021/09/08 12:27:28;;;;;;;7.88;4.63;;;;;;;;;;4955331;28;20106;-83
2021/09/08 12:30:00;;;;;;;8.13;4.20;;;;;;;;;;4955292;29;20029;-83
2021/09/08 12:32:52;;;;;;;7.40;4.07;;;;;;;;;;4939462;29;20480;-83
2021/09/08 12:36:00;;;;;;;7.53;4.20;;;;;;;;;;4954611;28;20027;-85
2021/09/08 12:38:30;;;;;;;6.97;4.18;;;;;;;;;;4954358;29;20035;-86
2021/09/08 12:41:15;;;;;;;7.60;4.60;;;;;;;;;;4938631;28;20480;-85
2021/09/08 12:43:53;;;;;;;9.15;4.60;;;;;;;;;;4954211;29;20030;-85
2021/09/08 12:46:37;;;;;;;9.25;4.45;;;;;;;;;;4954192;28;20031;-84
2021/09/08 12:49:07;;;;;;;9.65;4.38;;;;;;;;;;4963001;28;20610;-84
2021/09/08 12:51:33;;;;;;;7.88;4.30;;;;;;;;;;4970208;28;20055;-85
2021/09/08 12:53:58;;;;;;;7.60;4.47;;;;;;;;;;4940953;28;20019;-85
2021/09/08 12:56:23;;;;;;;10.10;4.80;;;;;;;;;;4973320;28;20117;-86
2021/09/08 12:58:49;;;;;;;7.67;4.50;;;;;;;;;;4973622;28;20111;-85
2021/09/08 13:01:14;;;;;;;7.63;4.80;;;;;;;;;;4973206;28;20380;-85
2021/09/08 13:03:39;;;;;;;8.53;4.70;;;;;;;;;;4973116;28;20078;-86
2021/09/08 13:06:05;;;;;;;8.67;4.47;;;;;;;;;;4956964;28;20026;-84
2021/09/08 13:08:30;;;;;;;6.28;3.70;;;;;;;;;;4969825;28;20030;-85
2021/09/08 13:10:57;;;;;;;8.57;4.37;;;;;;;;;;4969878;28;20476;-85
2021/09/08 13:13:23;;;;;;;9.13;4.30;;;;;;;;;;4954165;29;20030;-86
2021/09/08 13:15:48;;;;;;;8.13;4.50;;;;;;;;;;4969721;28;20031;-85
2021/09/08 13:18:17;;;;;;;7.80;4.37;;;;;;;;;;4969968;28;20114;-85
2021/09/08 13:20:43;;;;;;;11.23;4.43;;;;;;;;;;4969976;28;20019;-85
2021/09/08 13:23:10;;;;;;;7.65;4.55;;;;;;;;;;4969456;28;20050;-86
2021/09/08 13:25:36;;;;;;;6.90;4.30;;;;;;;;;;4969337;28;20449;-86
2021/09/08 13:28:01;;;;;;;8.13;4.50;;;;;;;;;;4953825;28;20118;-85
2021/09/08 13:30:27;;;;;;;10.10;5.00;;;;;;;;;;4969584;28;20428;-85
2021/09/08 13:32:52;;;;;;;7.50;4.40;;;;;;;;;;4953242;29;20027;-85
2021/09/08 13:35:17;;;;;;;7.43;4.10;;;;;;;;;;4969484;28;20114;-86
2021/09/08 13:37:43;;;;;;;9.90;4.40;;;;;;;;;;4969575;28;20506;-85
2021/09/08 13:40:09;;;;;;;7.63;4.87;;;;;;;;;;4969270;28;20118;-84
2021/09/08 13:42:34;;;;;;;7.40;4.55;;;;;;;;;;4953356;29;20031;-84
2021/09/08 13:44:59;;;;;;;7.17;4.50;;;;;;;;;;4969139;28;20061;-85
2021/09/08 13:47:28;;;;;;;6.83;4.27;;;;;;;;;;4969099;28;20130;-85
2021/09/08 13:49:59;;;;;;;8.52;4.85;;;;;;;;;;4969097;28;20082;-85
2021/09/08 13:52:24;;;;;;;7.78;4.38;;;;;;;;;;4952848;29;20031;-85
2021/09/08 13:54:49;;;;;;;7.80;4.27;;;;;;;;;;4968989;28;20054;-85
2021/09/08 13:57:15;;;;;;;9.97;4.47;;;;;;;;;;4969440;28;20106;-85
2021/09/08 13:59:40;;;;;;;6.77;4.00;;;;;;;;;;4968444;28;20564;-86
2021/09/08 14:02:06;;;;;;;8.43;4.47;;;;;;;;;;4952784;29;20035;-85
2021/09/08 14:04:31;;;;;;;10.33;4.47;;;;;;;;;;4952780;29;20432;-84
2021/09/08 14:07:04;;;;;;;8.30;4.57;;;;;;;;;;4952794;28;20027;-85
2021/09/08 14:09:31;;;;;;;8.35;4.57;;;;;;;;;;4972587;28;20034;-84
2021/09/08 14:11:57;;;;;;;8.85;4.68;;;;;;;;;;4952168;28;20023;-85
2021/09/08 14:14:23;;;;;;;9.30;4.70;;;;;;;;;;4920928;29;20118;-85
2021/09/08 14:16:48;;;;;;;9.70;4.40;;;;;;;;;;4936547;28;20177;-85
2021/09/08 14:19:13;;;;;;;8.40;4.63;;;;;;;;;;4942855;29;20022;-85
2021/09/08 14:21:39;;;;;;;8.47;4.83;;;;;;;;;;4936798;29;20019;-86
2021/09/08 14:24:04;;;;;;;8.93;4.25;;;;;;;;;;4936767;29;20033;-85
2021/09/08 14:26:30;;;;;;;9.60;4.53;;;;;;;;;;4939804;28;20033;-85
2021/09/08 14:28:55;;;;;;;8.73;4.67;;;;;;;;;;4950006;28;20537;-86
2021/09/08 14:31:21;;;;;;;10.27;4.60;;;;;;;;;;4944338;29;20635;-85
2021/09/08 14:33:46;;;;;;;7.10;4.43;;;;;;;;;;4955536;28;20053;-84
2021/09/08 14:36:12;;;;;;;8.63;4.33;;;;;;;;;;4955768;28;20023;-85
2021/09/08 14:38:41;;;;;;;8.48;4.28;;;;;;;;;;4952472;28;20023;-86
2021/09/08 14:41:07;;;;;;;8.07;4.20;;;;;;;;;;4936261;29;20039;-84
2021/09/08 14:43:34;;;;;;;8.63;4.88;;;;;;;;;;4937085;28;20457;-85
2021/09/08 14:45:59;;;;;;;10.55;4.40;;;;;;;;;;4936223;28;20023;-85
2021/09/08 14:48:26;;;;;;;7.33;4.00;;;;;;;;;;4922816;28;20031;-85
2021/09/08 14:50:53;;;;;;;7.35;4.50;;;;;;;;;;4971583;28;20162;-85
2021/09/08 14:53:19;;;;;;;7.78;4.57;;;;;;;;;;4955495;28;20030;-84
2021/09/08 14:55:45;;;;;;;7.00;4.13;;;;;;;;;;4939745;28;20023;-85
2021/09/08 14:58:11;;;;;;;9.45;4.53;;;;;;;;;;4955900;28;20058;-85
2021/09/08 15:00:37;;;;;;;;;;;;;;;;;;4952831;28;20106;-85
2021/09/08 15:03:07;;;;;;;9.35;4.40;;;;;;;;;;4952278;29;19966;-85
2021/09/08 15:05:33;;;;;;;7.90;4.18;;;;;;;;;;4968422;28;20032;-85
2021/09/08 15:08:00;;;;;;;7.72;4.03;;;;;;;;;;4952047;29;20549;-85
2021/09/08 15:10:25;;;;;;;;;;;;;;;;;;4955622;28;20038;-85
2021/09/08 15:12:50;;;;;;;6.97;4.30;;;;;;;;;;4987874;28;19909;-85
2021/09/08 15:15:16;;;;;;;7.93;4.37;;;;;;;;;;4953133;28;20101;-85
2021/09/08 15:17:41;;;;;;;7.50;4.35;;;;;;;;;;4955874;28;20026;-85
2021/09/08 15:20:07;;;;;;;10.68;4.55;;;;;;;;;;4970412;28;20109;-85
2021/09/08 15:22:52;;;;;;;6.72;4.00;;;;;;;;;;4955433;28;20419;-87
2021/09/08 15:25:39;;;;;;;6.95;3.92;;;;;;;;;;4959011;28;20035;-87
2021/09/08 15:28:20;;;;;;;7.45;4.10;;;;;;;;;;4964112;28;20114;-88
2021/09/08 15:30:50;;;;;;;7.75;4.10;;;;;;;;;;4958712;28;20035;-86
2021/09/08 15:33:20;;;;;;;7.43;4.25;;;;;;;;;;4957876;28;20081;-87
2021/09/08 15:35:45;;;;;;;8.07;4.47;;;;;;;;;;4975865;28;20085;-87
2021/09/08 15:38:27;;;;;;;8.77;4.30;;;;;;;;;;4957824;28;20039;-86
2021/09/08 15:41:01;;;;;;;8.13;4.40;;;;;;;;;;4961239;28;20031;-87
2021/09/08 15:44:11;;;;;;;7.03;4.22;;;;;;;;;;4975168;28;20065;-86
2021/09/08 15:46:43;;;;;;;9.07;4.13;;;;;;;;;;4975367;28;20384;-87
2021/09/08 15:49:10;;;;;;;10.20;4.38;;;;;;;;;;4976875;28;20102;-86
2021/09/08 15:51:38;;;;;;;8.30;4.18;;;;;;;;;;4942743;28;20026;-85
2021/09/08 15:54:03;;;;;;;12.07;4.82;;;;;;;;;;4958991;28;20085;-84
2021/09/08 15:56:56;;;;;;;6.97;4.10;;;;;;;;;;4975057;28;20498;-86
2021/09/08 15:59:22;;;;;;;8.13;4.28;;;;;;;;;;4974432;28;20036;-84
2021/09/08 16:01:49;;;;;;;7.40;4.25;;;;;;;;;;4958770;28;20085;-85
2021/09/08 16:04:20;;;;;;;9.38;4.40;;;;;;;;;;4955405;28;20412;-85
2021/09/08 16:06:53;;;;;;;9.90;4.45;;;;;;;;;;4955628;28;20031;-85
2021/09/08 16:09:20;;;;;;;10.23;4.20;;;;;;;;;;4955413;28;20035;-85
2021/09/08 16:11:46;;;;;;;13.35;4.68;;;;;;;;;;4971217;28;20067;-86
2021/09/08 16:14:16;;;;;;;9.50;4.13;;;;;;;;;;4958057;28;20113;-86
2021/09/08 16:16:47;;;;;;;7.80;4.25;;;;;;;;;;4939503;28;20117;-87
2021/09/08 16:19:13;;;;;;;9.00;4.10;;;;;;;;;;4965374;28;20580;-86
2021/09/08 16:21:39;;;;;;;9.85;4.25;;;;;;;;;;4957265;28;20019;-86
2021/09/08 16:24:05;;;;;;;9.52;3.97;;;;;;;;;;4989681;28;20027;-86
2021/09/08 16:26:30;;;;;;;9.03;4.17;;;;;;;;;;4973453;28;20055;-85
2021/09/08 16:28:56;;;;;;;9.80;4.30;;;;;;;;;;4973589;28;20026;-86
2021/09/08 16:31:21;;;;;;;6.53;3.83;;;;;;;;;;4957595;28;20023;-84
2021/09/08 16:33:46;;;;;;;12.70;4.00;;;;;;;;;;4973145;28;20514;-86
2021/09/08 16:36:13;;;;;;;12.13;4.30;;;;;;;;;;4956538;28;20455;-86
2021/09/08 16:38:38;;;;;;;7.97;3.78;;;;;;;;;;4973585;28;20046;-86
2021/09/08 16:41:04;;;;;;;9.97;4.20;;;;;;;;;;4970018;28;20024;-87
2021/09/08 16:43:29;;;;;;;7.50;4.13;;;;;;;;;;4970238;28;20448;-86
2021/09/08 16:45:54;;;;;;;7.37;3.90;;;;;;;;;;4970134;28;20534;-85
2021/09/08 16:48:20;;;;;;;7.60;3.90;;;;;;;;;;4970237;28;20023;-86
2021/09/08 16:50:45;;;;;;;13.30;4.00;;;;;;;;;;4953701;29;20053;-85
2021/09/08 16:53:10;;;;;;;10.60;4.10;;;;;;;;;;4953550;29;20117;-86
2021/09/08 16:55:36;;;;;;;7.30;4.10;;;;;;;;;;4953510;28;20077;-86
2021/09/08 16:58:02;;;;;;;8.30;4.25;;;;;;;;;;4953904;29;20074;-86
2021/09/08 17:00:27;;;;;;;10.03;4.30;;;;;;;;;;4954084;29;20031;-84
2021/09/08 17:02:52;;;;;;;7.23;4.30;;;;;;;;;;4937758;29;20033;-86
2021/09/08 17:05:18;;;;;;;10.23;4.20;;;;;;;;;;4956658;28;20023;-86
2021/09/08 17:07:43;;;;;;;9.00;4.30;;;;;;;;;;4972976;28;20027;-86
2021/09/08 17:10:09;;;;;;;8.03;4.33;;;;;;;;;;4973101;28;20034;-86
2021/09/08 17:12:34;;;;;;;7.10;3.93;;;;;;;;;;4955134;28;20050;-86
2021/09/08 17:15:00;;;;;;;7.53;4.13;;;;;;;;;;4972760;28;20387;-88
2021/09/08 17:17:25;;;;;;;8.30;4.23;;;;;;;;;;4956891;28;20033;-86
2021/09/08 17:19:51;;;;;;;8.37;4.20;;;;;;;;;;4972633;28;20037;-86
2021/09/08 17:22:17;;;;;;;9.02;4.57;;;;;;;;;;4967584;28;20027;-86
2021/09/08 17:24:42;;;;;;;8.20;4.63;;;;;;;;;;4972351;28;20027;-84
2021/09/08 17:27:08;;;;;;;12.77;4.73;;;;;;;;;;4940313;28;20054;-86
2021/09/08 17:29:33;;;;;;;8.17;4.10;;;;;;;;;;4972760;28;20026;-86
2021/09/08 17:31:58;;;;;;;6.77;4.00;;;;;;;;;;4956346;28;20027;-84
2021/09/08 17:34:26;;;;;;;11.07;4.73;;;;;;;;;;4956152;28;20759;-86
2021/09/08 17:36:51;;;;;;;9.52;4.63;;;;;;;;;;4940918;28;20490;-86
2021/09/08 17:39:17;;;;;;;8.43;4.43;;;;;;;;;;4956228;28;20173;-86
2021/09/08 17:41:54;;;;;;;8.43;4.80;;;;;;;;;;4940532;28;20030;-86
2021/09/08 17:44:19;;;;;;;8.60;4.85;;;;;;;;;;4943069;28;20089;-85
2021/09/08 17:46:44;;;;;;;11.47;4.60;;;;;;;;;;4955405;28;20442;-86
2021/09/08 17:49:10;;;;;;;8.47;4.87;;;;;;;;;;4955359;28;20026;-85
2021/09/08 17:51:35;;;;;;;8.83;5.30;;;;;;;;;;4954901;28;20037;-85
2021/09/08 17:54:00;;;;;;;9.87;4.77;;;;;;;;;;4956040;28;20110;-85
2021/09/08 17:56:27;;;;;;;11.73;4.90;;;;;;;;;;4955738;28;20142;-86
2021/09/08 17:58:52;;;;;;;8.82;5.15;;;;;;;;;;4956211;28;20026;-86
2021/09/08 18:01:17;;;;;;;10.43;5.77;;;;;;;;;;4939669;28;20034;-86
2021/09/08 18:03:43;;;;;;;10.13;5.63;;;;;;;;;;4946916;28;20035;-85
2021/09/08 18:06:09;;;;;;;10.52;5.43;;;;;;;;;;4951122;28;20035;-87
2021/09/08 18:08:34;;;;;;;8.90;4.63;;;;;;;;;;4955358;28;20558;-85
2021/09/08 18:10:59;;;;;;;11.00;5.17;;;;;;;;;;4954560;28;20483;-84
2021/09/08 18:13:25;;;;;;;11.13;5.30;;;;;;;;;;4937054;28;20061;-84
2021/09/08 18:15:51;;;;;;;10.80;4.93;;;;;;;;;;4956736;28;20101;-83
2021/09/08 18:18:16;;;;;;;9.80;5.30;;;;;;;;;;4956807;28;20027;-83
2021/09/08 18:20:41;;;;;;;11.13;5.30;;;;;;;;;;4971423;28;20034;-83
2021/09/08 18:23:08;;;;;;;10.13;5.10;;;;;;;;;;4954680;28;20041;-86
2021/09/08 18:25:39;;;;;;;11.32;5.40;;;;;;;;;;4970794;28;20053;-84
2021/09/08 18:28:05;;;;;;;9.93;4.72;;;;;;;;;;4970510;28;20066;-83